HEGN

Hurghada International Airport

Hurghada, Egypt
METAR HEGN 171000Z 33022KT 7000 NSC 21/05 Q1016 NOSIG
Observed Flight Rules
Jan-17 @ 10:00 UTC (39 minutes ago) Marginal Visual Flight Rules
Wind Visibility Clouds
330° at 22 knots 7,001 meters
  • Clear skies
Temperatures Readings
Current 21°C / 70°F
Dewpoint 5°C / 41°F
Humidity 35%
Altimeter 30" Hg
Pressure 1016 hPa
Elevation 14
METAR HEGN 171000Z 33022KT 7000 NSC 21/05 Q1016 NOSIG
Observed Flight Rules
Jan-17 @ 10:00 UTC
(39 minutes ago)
MVFR
Wind Visibility
330° at 22 knots 7,001 meters
Clouds
  • Clear skies
Temperature Dewpoint
21°C / 70°F 5°C / 41°F
Humidity Altimeter Pressure
35% 30" Hg 1016 hPa